METAR Analyzer

一覧表示

Hello, Guest. (Login)

LTBA/ISL  -  イスタンブール・アタテュルク

観測日時
2021-11-28 19:50 (UTC) (41分前)
気温
17
露点
11
湿数
6
相対湿度
67.7%
QNH
1008hPa
推定現地気圧
1002.0hPa
推定海面気圧
1007.9hPa
体感温度
6.7
(無風時)
18.1
HI
16.5
気温前日比
+1
体感温度前日比
-4.3
HI前日比
+0.8
水平視程
>10000m
鉛直視程
データなし
雲底高度
No dense clouds
V/I
VMC (VFR)
RVR
No RVR data
卓越風
17kt from 230°
ガスト
No gust
降水
報告なし
その他の天気
報告なし
報告なし

LTBA 281950Z 23017KT CAVOK 17/11 Q1008 NOSIG RMK RWY23 23019KT

LTFM/IST  -  イスタンブール (新)

観測日時
2021-11-28 19:50 (UTC) (41分前)
気温
16
露点
10
湿数
6
相対湿度
67.5%
QNH
1007hPa
推定現地気圧
995.2hPa
推定海面気圧
1006.9hPa
体感温度
7.1
(無風時)
17.3
HI
15.4
気温前日比
-1
体感温度前日比
+0.8
HI前日比
-1
水平視程
>10000m
鉛直視程
データなし
雲底高度
No dense clouds
V/I
VMC (VFR)
RVR
No RVR data
卓越風
10kt from 190° (150° ~ 220°)
ガスト
No gust
降水
報告なし
その他の天気
報告なし
報告なし

LTFM 281950Z 19010KT 150V220 CAVOK 16/10 Q1007 NOSIG RMK RWY17L 17010KT 140V200 RWY34L 18010KT 130V210 RWY16R 18009G19KT RWY36 19011KT RWY18 20012KT

165.8msec